createdAt,value
2017-10-17T14:47:15.374Z,56.39
2017-10-17T14:48:25.510Z,57.96
2017-10-17T14:49:35.282Z,59.38
2017-10-17T14:50:45.481Z,57.64
2017-10-17T14:51:55.347Z,58.51
2017-10-17T14:53:05.849Z,59.25
2017-10-17T14:54:16.425Z,59.42
2017-10-17T14:55:26.242Z,60.86
2017-10-17T14:56:36.018Z,61.22
2017-10-17T14:57:46.443Z,61.9
2017-10-17T14:58:55.923Z,64.02
2017-10-17T15:00:05.697Z,63.54
2017-10-17T15:01:15.392Z,64.02
2017-10-17T15:04:30.339Z,62.09
2017-10-17T15:05:40.035Z,61.99
2017-10-17T15:06:50.077Z,62.28
2017-10-17T15:07:59.770Z,62.93
2017-10-17T15:09:09.472Z,64.08
2017-10-17T15:10:19.506Z,64.08
2017-10-17T15:11:29.212Z,63.98
2017-10-17T15:12:39.253Z,64.76
2017-10-17T15:13:48.952Z,65.5
2017-10-17T15:14:58.759Z,65.88
2017-10-17T15:16:08.107Z,66.04
2017-10-17T15:17:17.812Z,66.24
2017-10-17T15:18:27.862Z,66.81
2017-10-17T15:19:37.894Z,66.81
2017-10-17T15:20:47.584Z,66.91
2017-10-17T15:21:57.645Z,67.19
2017-10-17T15:23:07.012Z,67.1
2017-10-17T15:24:17.454Z,67.39
2017-10-17T15:25:27.183Z,67.1
2017-10-17T15:26:37.569Z,67.74
2017-10-17T15:27:47.602Z,67.77
2017-10-17T15:28:57.957Z,67.07
2017-10-17T15:30:07.986Z,67.16
2017-10-17T15:31:18.014Z,67.26
2017-10-17T15:32:28.375Z,67.07
2017-10-17T15:33:38.753Z,67.19
2017-10-17T15:34:48.771Z,67.68
2017-10-17T15:35:58.786Z,68.35
2017-10-17T15:37:08.837Z,68.22
2017-10-17T15:38:18.535Z,67.93
2017-10-17T15:39:28.932Z,68.32
2017-10-17T15:40:38.989Z,68.6
2017-10-17T15:41:49.020Z,68.6
2017-10-17T15:42:58.726Z,68.6
2017-10-17T15:44:08.761Z,68.9
2017-10-17T15:45:19.142Z,69.76
2017-10-17T15:46:29.170Z,69.57
2017-10-17T15:47:38.865Z,69.76
2017-10-17T15:48:48.554Z,69.63
2017-10-17T15:49:57.911Z,70.01
2017-10-17T15:51:07.931Z,70.11
2017-10-17T15:52:18.303Z,70.4
2017-10-17T15:53:28.014Z,70.21
2017-10-17T15:54:37.720Z,71.08
2017-10-17T15:55:47.445Z,70.21
2017-10-17T15:56:57.865Z,70.68
2017-10-17T15:58:08.230Z,70.68
2017-10-17T15:59:17.938Z,70.68
2017-10-17T16:00:28.292Z,71.36
2017-10-17T16:01:37.970Z,71.55
2017-10-17T16:02:47.662Z,71.61
2017-10-17T16:03:57.712Z,72.29
2017-10-17T16:05:07.745Z,72.96
2017-10-17T16:06:17.445Z,71.81
2017-10-17T16:07:27.147Z,72.09
2017-10-17T16:08:36.867Z,72.29
2017-10-17T16:09:46.575Z,73.35
2017-10-17T16:10:56.627Z,73.83
2017-10-17T16:12:06.021Z,74.02
2017-10-17T16:13:15.755Z,74.11
2017-10-17T16:14:25.479Z,73.73
2017-10-17T16:15:35.530Z,74.08
2017-10-17T16:16:45.252Z,74.75
2017-10-17T16:17:55.335Z,75.13
2017-10-17T16:19:04.747Z,75.23
2017-10-17T16:20:15.167Z,75.52
2017-10-17T16:21:24.535Z,75.23
2017-10-17T16:22:34.994Z,75.04
2017-10-17T16:23:44.364Z,76.09
2017-10-17T16:24:53.754Z,76.29
2017-10-17T16:26:03.465Z,76.39
2017-10-17T16:27:13.501Z,76.39
2017-10-17T16:28:22.624Z,76.92
2017-10-17T16:29:33.001Z,76.34
2017-10-17T16:30:43.054Z,77.01
2017-10-17T16:31:53.089Z,77.31
2017-10-17T16:33:03.129Z,77.31
2017-10-17T16:34:12.827Z,77.5
2017-10-17T16:35:22.518Z,77.59
2017-10-17T16:36:32.925Z,77.5
2017-10-17T16:37:42.640Z,77.5
2017-10-17T16:38:53.046Z,77.01
2017-10-17T16:40:02.741Z,77.69
2017-10-17T16:41:12.879Z,77.46
2017-10-17T16:42:22.944Z,77.75
2017-10-17T16:43:32.298Z,78.8
2017-10-17T16:44:42.696Z,78.8
2017-10-17T16:45:52.764Z,79.09
2017-10-17T16:47:02.804Z,79.28
2017-10-17T16:48:11.504Z,79.47
2017-10-17T16:49:21.542Z,79.38
2017-10-17T16:50:31.575Z,79.47
2017-10-17T16:51:41.929Z,79.67
2017-10-17T16:52:52.286Z,79.57
2017-10-17T16:54:02.319Z,80.05
2017-10-17T16:55:12.007Z,79.96
2017-10-17T16:56:22.048Z,80.05
2017-10-17T16:57:32.064Z,79.96
2017-10-17T16:58:41.756Z,80.73
2017-10-17T16:59:51.448Z,80.43
2017-10-17T17:01:01.468Z,80.63
2017-10-17T17:02:11.158Z,81.01
2017-10-17T17:03:21.539Z,81.01
2017-10-17T17:04:31.228Z,80.82
2017-10-17T17:05:40.257Z,81.59
2017-10-17T17:06:50.299Z,80.91
2017-10-17T17:07:59.979Z,80.91
2017-10-17T17:09:10.018Z,81.35
2017-10-17T17:10:20.037Z,81.07
2017-10-17T17:11:30.453Z,81.26
2017-10-17T17:12:40.184Z,81.45
2017-10-17T17:13:50.216Z,81.26
2017-10-17T17:14:59.922Z,81.07
2017-10-17T17:16:09.963Z,81.45
2017-10-17T17:17:20.008Z,81.26
2017-10-17T17:18:29.353Z,81.35
2017-10-17T17:19:39.702Z,81.16
2017-10-17T17:20:49.385Z,81.16
2017-10-17T17:21:59.400Z,81.93
2017-10-17T17:23:09.460Z,81.74
2017-10-17T17:24:19.489Z,81.64
2017-10-17T17:25:29.508Z,82.03
2017-10-17T17:26:38.856Z,81.74
2017-10-17T17:27:48.536Z,81.54
2017-10-17T17:28:58.570Z,81.35
2017-10-17T17:30:07.925Z,81.35
2017-10-17T17:31:17.625Z,81.26
2017-10-17T17:32:27.682Z,81.07
2017-10-17T17:33:37.703Z,82.12
2017-10-17T17:34:48.052Z,82.12
2017-10-17T17:35:58.170Z,81.74
2017-10-17T17:37:07.561Z,81.26
2017-10-17T17:38:17.641Z,81.22
2017-10-17T17:39:28.133Z,81.12
2017-10-17T17:40:38.173Z,81.79
2017-10-17T17:41:48.535Z,81.51
2017-10-17T17:42:58.593Z,81.12
2017-10-17T17:44:08.609Z,81.41
2017-10-17T17:45:18.669Z,81.6
2017-10-17T17:46:28.026Z,80.93
2017-10-17T17:47:37.719Z,81.02
2017-10-17T17:48:47.413Z,81.7
2017-10-17T17:49:57.436Z,82.18
2017-10-17T17:51:07.133Z,83.33
2017-10-17T17:52:17.146Z,82.85
2017-10-17T17:53:26.877Z,82.94
2017-10-17T17:54:36.568Z,83.04
2017-10-17T17:55:46.253Z,82.85
2017-10-17T17:56:56.276Z,82.37
2017-10-17T17:58:05.981Z,81.7
2017-10-17T17:59:16.045Z,81.98
2017-10-17T18:00:25.750Z,81.7
2017-10-17T18:01:36.112Z,82.08
2017-10-17T18:02:45.492Z,81.98
2017-10-17T18:03:55.922Z,83.04
2017-10-17T18:05:04.957Z,82.08
2017-10-17T18:06:15.021Z,81.98
2017-10-17T18:07:25.028Z,81.79
2017-10-17T18:08:34.713Z,81.98
2017-10-17T18:09:44.069Z,81.98
2017-10-17T18:10:54.451Z,81.41
2017-10-17T18:12:04.151Z,81.56
2017-10-17T18:13:13.876Z,81.75
2017-10-17T18:14:24.232Z,83.04
2017-10-17T18:15:34.595Z,83.67
2017-10-17T18:16:43.602Z,84.09
2017-10-17T18:17:53.633Z,83.76
2017-10-17T18:19:03.699Z,83.48
2017-10-17T18:20:13.377Z,83.52
2017-10-17T18:21:23.455Z,83.23
2017-10-17T18:22:32.932Z,82.71
2017-10-17T18:23:43.179Z,82.9
2017-10-17T18:24:52.779Z,83.09
2017-10-17T18:26:03.840Z,83.19
2017-10-17T18:27:13.197Z,83.29
2017-10-17T18:28:23.809Z,83.09
2017-10-17T18:29:33.650Z,83.09
2017-10-17T18:30:43.063Z,83
2017-10-17T18:31:52.443Z,83.09
2017-10-17T18:33:02.533Z,82.81
2017-10-17T18:34:12.431Z,83.38
2017-10-17T18:35:22.321Z,82.71
2017-10-17T18:36:32.190Z,82.71
2017-10-17T18:37:42.309Z,82.81
2017-10-17T18:38:52.474Z,82.81
2017-10-17T18:40:02.603Z,82.71
2017-10-17T18:41:12.446Z,83.29
2017-10-17T18:42:22.201Z,83.19
2017-10-17T18:43:31.917Z,82.81
2017-10-17T18:44:42.447Z,82.9
2017-10-17T18:45:51.531Z,82.81
2017-10-17T18:47:01.099Z,82.81
2017-10-17T18:48:11.293Z,82.9
2017-10-17T18:49:21.568Z,82.81
2017-10-17T18:50:31.841Z,82.81
2017-10-17T18:51:42.422Z,82.9
2017-10-17T18:52:52.257Z,83.05
2017-10-17T18:54:01.782Z,82.96
2017-10-17T18:55:11.667Z,83.25
2017-10-17T18:56:21.572Z,83.09
2017-10-17T18:57:30.550Z,82.96
2017-10-17T18:58:40.413Z,82.9
2017-10-17T18:59:50.593Z,83.05
2017-10-17T19:01:01.215Z,83.25
2017-10-17T19:02:10.749Z,82.86
2017-10-17T19:03:20.236Z,83.53
2017-10-17T19:04:30.329Z,83.44
2017-10-17T19:05:40.502Z,83.53
2017-10-17T19:06:50.695Z,83.53
2017-10-17T19:08:00.526Z,83.34
2017-10-17T19:09:09.903Z,83.44
2017-10-17T19:10:19.437Z,82.96
2017-10-17T19:11:29.660Z,82.96
2017-10-17T19:12:39.456Z,83.53
2017-10-17T19:13:49.535Z,82.86
2017-10-17T19:14:59.421Z,83.15
2017-10-17T19:16:09.965Z,83.25
2017-10-17T19:17:19.545Z,83.44
2017-10-17T19:18:29.329Z,82.86
2017-10-17T19:19:39.836Z,83.34
2017-10-17T19:20:50.041Z,83.44
2017-10-17T19:21:59.208Z,83.82
2017-10-17T19:23:09.461Z,83.72
2017-10-17T19:24:19.691Z,82.76
2017-10-17T19:25:29.635Z,83.63
2017-10-17T19:26:40.098Z,83.72
2017-10-17T19:27:50.277Z,83.82
2017-10-17T19:29:00.328Z,83.82
2017-10-17T19:30:10.470Z,83.53
2017-10-17T19:31:20.660Z,83.63
2017-10-17T19:32:30.494Z,84.01
2017-10-17T19:33:40.968Z,83.82
2017-10-17T19:34:50.160Z,83.72
2017-10-17T19:36:00.621Z,83.44
2017-10-17T19:37:10.807Z,83.82
2017-10-17T19:38:21.078Z,83.92
2017-10-17T19:39:30.988Z,83.44
2017-10-17T19:40:41.117Z,83.82
2017-10-17T19:41:51.191Z,83.92
2017-10-17T19:43:01.062Z,83.82
2017-10-17T19:44:10.894Z,83.92
2017-10-17T19:45:20.668Z,83.82
2017-10-17T19:46:29.769Z,83.82
2017-10-17T19:47:39.608Z,84.01
2017-10-17T19:48:49.759Z,84.11
2017-10-17T19:50:00.184Z,83.92
2017-10-17T19:51:10.696Z,84.3
2017-10-17T19:52:20.272Z,84.58
2017-10-17T19:53:30.280Z,84.11
2017-10-17T19:54:39.358Z,84.01
2017-10-17T19:55:49.298Z,83.82
2017-10-17T19:56:59.196Z,84.2
2017-10-17T19:58:09.746Z,84.11
2017-10-17T19:59:19.863Z,83.53
2017-10-17T20:00:30.443Z,83.72
2017-10-17T20:01:40.624Z,83.82
2017-10-17T20:02:50.110Z,83.82
2017-10-17T20:04:00.226Z,83.63
2017-10-17T20:05:10.019Z,83.92
2017-10-17T20:06:19.868Z,83.72
2017-10-17T20:07:29.789Z,84.11
2017-10-17T20:08:39.154Z,83.53
2017-10-17T20:09:49.356Z,83.53
2017-10-17T20:10:59.595Z,84.01
2017-10-17T20:12:09.887Z,83.63
2017-10-17T20:13:19.364Z,83.53
2017-10-17T20:14:29.479Z,83.72
2017-10-17T20:15:40.016Z,83.82
2017-10-17T20:16:49.918Z,83.72
2017-10-17T20:18:00.123Z,83.92
2017-10-17T20:19:09.868Z,84.11
2017-10-17T20:20:20.304Z,83.97
2017-10-17T20:21:30.085Z,84.35
2017-10-17T20:22:39.508Z,84.78
2017-10-17T20:23:50.019Z,85.02
2017-10-17T20:25:00.143Z,85.25
2017-10-17T20:26:10.618Z,85.74
2017-10-17T20:27:20.377Z,85.41
2017-10-17T20:28:30.411Z,85.69
2017-10-17T20:29:40.124Z,85.6
2017-10-17T20:30:49.512Z,85.25
2017-10-17T20:31:58.619Z,85.02
2017-10-17T20:33:09.252Z,85.31
2017-10-17T20:34:18.691Z,85.88
2017-10-17T20:35:28.348Z,86.12
2017-10-17T20:36:38.397Z,86.36
2017-10-17T20:37:48.105Z,85.98
2017-10-17T20:38:58.130Z,86.36
2017-10-17T20:40:08.573Z,86.69
2017-10-17T20:41:18.686Z,86.94
2017-10-17T20:42:28.607Z,87.03
2017-10-17T20:43:38.726Z,86.84
2017-10-17T20:44:48.869Z,86.94
2017-10-17T20:45:58.249Z,87.13
2017-10-17T20:47:08.640Z,87.23
2017-10-17T20:48:18.721Z,87.13
2017-10-17T20:49:28.453Z,87.13
2017-10-17T20:50:38.844Z,87.13
2017-10-17T20:51:48.224Z,87.03
2017-10-17T20:52:58.284Z,86.84
2017-10-17T20:54:08.716Z,87.41
2017-10-17T20:55:18.476Z,87.41
2017-10-17T20:56:28.530Z,87.41
2017-10-17T20:57:38.283Z,87.51
2017-10-17T20:58:48.012Z,87.7
2017-10-17T20:59:57.041Z,87.51
2017-10-17T21:01:06.734Z,87.9
2017-10-17T21:02:16.451Z,87.99
2017-10-17T21:03:25.852Z,87.61
2017-10-17T21:04:36.239Z,87.9
2017-10-17T21:05:46.259Z,87.9
2017-10-17T21:06:56.289Z,87.7
2017-10-17T21:08:06.012Z,87.8
2017-10-17T21:09:15.756Z,87.7
2017-10-17T21:10:25.447Z,87.99
2017-10-17T21:11:35.179Z,87.61
2017-10-17T21:12:44.868Z,87.61
2017-10-17T21:13:54.255Z,87.8
2017-10-17T21:15:03.623Z,88.28
2017-10-17T21:16:13.649Z,88.09
2017-10-17T21:17:24.005Z,88.09
2017-10-17T21:18:33.399Z,88.28
2017-10-17T21:19:43.518Z,88.28
2017-10-17T21:20:52.880Z,89.04
2017-10-17T21:22:03.251Z,88.37
2017-10-17T21:23:12.942Z,89.04
2017-10-17T21:24:23.319Z,88.37
2017-10-17T21:25:33.363Z,88.28
2017-10-17T21:26:42.802Z,88.09
2017-10-17T21:27:53.169Z,87.99
2017-10-17T21:29:03.545Z,88.28
2017-10-17T21:30:12.936Z,88.28
2017-10-17T21:31:22.690Z,88.09
2017-10-17T21:32:31.719Z,88.28
2017-10-17T21:33:41.071Z,88.18
2017-10-17T21:34:49.755Z,89.9
2017-10-17T21:36:00.108Z,89.52
2017-10-17T21:37:09.823Z,89.72
2017-10-17T21:38:20.184Z,89.23
2017-10-17T21:39:30.198Z,89.43
2017-10-17T21:40:40.571Z,88.95
2017-10-17T21:41:50.269Z,88.81
2017-10-17T21:42:59.623Z,88.47
2017-10-17T21:44:09.324Z,88.56
2017-10-17T21:45:19.367Z,88.23
2017-10-17T21:46:29.451Z,88.33
2017-10-17T21:47:38.896Z,88.33
2017-10-17T21:48:48.575Z,88.71
2017-10-17T21:49:57.589Z,89.19
2017-10-17T21:51:07.943Z,89.19
2017-10-17T21:52:17.966Z,89.19
2017-10-17T21:53:28.330Z,89.38
2017-10-17T21:54:38.053Z,89.38
2017-10-17T21:55:48.088Z,89.38
2017-10-17T21:56:58.160Z,88.71
2017-10-17T21:58:08.523Z,89
2017-10-17T21:59:18.583Z,88.9
2017-10-17T22:00:27.963Z,88.81
2017-10-17T22:01:37.992Z,88.81
2017-10-17T22:02:48.016Z,88.81
2017-10-17T22:03:58.045Z,88.33
2017-10-17T22:05:07.746Z,88.33
2017-10-17T22:06:17.827Z,88.71
2017-10-17T22:07:28.195Z,88.9
2017-10-17T22:08:38.264Z,88.52
2017-10-17T22:09:47.962Z,88.62
2017-10-17T22:10:57.654Z,89.09
2017-10-17T22:12:07.718Z,88.13
2017-10-17T22:13:17.771Z,88.9
2017-10-17T22:14:27.121Z,88.71
2017-10-17T22:15:37.148Z,88.13
2017-10-17T22:16:47.193Z,88.33
2017-10-17T22:17:55.905Z,88.23
2017-10-17T22:19:05.920Z,88.71
2017-10-17T22:20:15.949Z,88.62
2017-10-17T22:21:25.972Z,88.81
2017-10-17T22:22:36.338Z,88.52
2017-10-17T22:23:45.711Z,88.62
2017-10-17T22:24:55.398Z,88.71
2017-10-17T22:26:05.760Z,88.13
2017-10-17T22:27:15.774Z,88.29
2017-10-17T22:28:25.793Z,88.33
2017-10-17T22:29:35.477Z,88.04
2017-10-17T22:30:45.167Z,88.04
2017-10-17T22:31:54.854Z,88.23
2017-10-17T22:33:04.214Z,88.62
2017-10-17T22:34:13.909Z,89
2017-10-17T22:35:24.003Z,89.19
2017-10-17T22:36:34.058Z,89.29
2017-10-17T22:37:43.756Z,89.76
2017-10-17T22:38:52.768Z,89.09
2017-10-17T22:40:02.791Z,89.58
2017-10-17T22:41:13.175Z,89
2017-10-17T22:42:23.374Z,89.43
2017-10-17T22:43:33.386Z,89
2017-10-17T22:44:43.080Z,89.09
2017-10-17T22:45:52.765Z,89.29
2017-10-17T22:47:02.443Z,88.9
2017-10-17T22:48:12.178Z,89.58
2017-10-17T22:49:22.528Z,89.81
2017-10-17T22:50:32.210Z,89.53
2017-10-17T22:51:41.553Z,89.48
2017-10-17T22:52:51.605Z,89
2017-10-17T22:54:01.306Z,89.91
2017-10-17T22:55:11.372Z,90.15
2017-10-17T22:56:21.417Z,89.58
2017-10-17T22:57:30.767Z,89.48
2017-10-17T22:58:40.475Z,89.24
2017-10-17T22:59:50.508Z,89.38
2017-10-17T23:00:59.852Z,89.24
2017-10-17T23:02:09.212Z,89.86
2017-10-17T23:03:18.901Z,89.05
2017-10-17T23:04:28.918Z,89.48
2017-10-17T23:05:38.609Z,89.38
2017-10-17T23:06:48.298Z,89.38
2017-10-17T23:07:57.311Z,89.24
2017-10-17T23:09:07.016Z,89.05
2017-10-17T23:10:17.380Z,89.53
2017-10-17T23:11:27.402Z,89.48
2017-10-17T23:12:37.104Z,89.24
2017-10-17T23:13:47.115Z,89.29
2017-10-17T23:14:57.140Z,89.34
2017-10-17T23:16:06.833Z,89.05
2017-10-17T23:17:17.203Z,89.38
2017-10-17T23:18:26.887Z,89.19
2017-10-17T23:19:37.235Z,88.95
2017-10-17T23:20:47.247Z,89.05
2017-10-17T23:21:57.259Z,89.05
2017-10-17T23:23:07.292Z,89.05
2017-10-17T23:24:17.312Z,89.29
2017-10-17T23:25:27.030Z,89.15
2017-10-17T23:26:37.060Z,89.38
2017-10-17T23:27:47.087Z,88.76
2017-10-17T23:28:58.027Z,88.57
2017-10-17T23:30:07.763Z,88.76
2017-10-17T23:31:17.800Z,88.86
2017-10-17T23:32:27.150Z,88.86
2017-10-17T23:33:37.503Z,88.76
2017-10-17T23:34:47.524Z,88.48
2017-10-17T23:35:57.879Z,88.48
2017-10-17T23:37:08.248Z,88.86
2017-10-17T23:38:17.940Z,88.67
2017-10-17T23:39:27.977Z,88.95
2017-10-17T23:40:38.009Z,88.95
2017-10-17T23:41:48.039Z,88.95
2017-10-17T23:42:58.388Z,88.76
2017-10-17T23:44:07.745Z,88.67
2017-10-17T23:45:17.772Z,88.67
2017-10-17T23:46:27.796Z,88.48
2017-10-17T23:47:36.807Z,88.57
2017-10-17T23:48:46.149Z,88.57
2017-10-17T23:49:55.172Z,88.48
2017-10-17T23:51:04.870Z,88.86
2017-10-17T23:52:14.927Z,88.38
2017-10-17T23:53:24.607Z,89.05
2017-10-17T23:54:34.639Z,88.19
2017-10-17T23:55:43.984Z,88.19
2017-10-17T23:56:53.991Z,88
2017-10-17T23:58:04.028Z,88.09
2017-10-17T23:59:14.047Z,88.19
